Time;durP1;ratioP1;P1;durP2;ratioP2;P2;SDS_P1;SDS_P2;PMS_P1;PMS_P2;Temp;Humidity;BMP_temperature;BMP_pressure;BME280_temperature;BME280_humidity;BME280_pressure;Samples;Min_cycle;Max_cycle;Signal;HPM_P1;HPM_P2
2021/01/04 00:04:15;;;;;;;9.27;8.10;;;;;;;1.11;100.00;100817.56;10195250;29;20051;-75
2021/01/04 00:09:39;;;;;;;9.65;7.82;;;;;;;1.12;100.00;100819.31;10220337;28;20043;-75
2021/01/04 00:14:54;;;;;;;11.05;9.60;;;;;;;1.17;100.00;100821.03;10219222;29;20050;-74
2021/01/04 00:20:07;;;;;;;10.68;9.50;;;;;;;1.11;100.00;100809.78;10235192;29;20050;-75
2021/01/04 00:25:47;;;;;;;9.93;8.93;;;;;;;1.15;100.00;100815.84;10258920;29;20094;-74
2021/01/04 00:30:52;;;;;;;10.32;9.23;;;;;;;1.10;100.00;100809.78;10282946;28;20062;-74
2021/01/04 00:36:00;;;;;;;10.23;9.02;;;;;;;1.15;100.00;100815.84;10288653;28;20063;-75
2021/01/04 00:41:08;;;;;;;11.07;9.98;;;;;;;1.14;100.00;100808.94;10255971;29;20165;-75
2021/01/04 00:46:12;;;;;;;10.38;9.30;;;;;;;1.15;100.00;100818.44;10236656;29;20043;-75
2021/01/04 00:51:24;;;;;;;9.82;8.10;;;;;;;1.10;100.00;100809.78;10254816;29;20039;-75
2021/01/04 00:56:31;;;;;;;9.30;7.97;;;;;;;1.10;100.00;100802.00;10251255;29;20051;-75
2021/01/04 01:01:44;;;;;;;12.00;10.90;;;;;;;1.03;100.00;100795.13;10254793;29;20039;-74
2021/01/04 01:07:05;;;;;;;9.07;8.18;;;;;;;0.98;100.00;100800.31;10249143;28;20054;-74
2021/01/04 01:12:18;;;;;;;14.63;13.23;;;;;;;1.03;100.00;100798.56;10251786;29;20395;-74
2021/01/04 01:17:44;;;;;;;11.63;10.52;;;;;;;1.04;100.00;100805.50;10252592;29;20384;-74
2021/01/04 01:22:45;;;;;;;10.68;9.68;;;;;;;0.98;100.00;100802.91;10253522;29;20047;-74
2021/01/04 01:28:17;;;;;;;21.13;18.42;;;;;;;1.02;100.00;100806.34;10254580;28;20039;-75
2021/01/04 01:33:30;;;;;;;25.38;21.63;;;;;;;1.03;100.00;100808.94;10251393;29;20436;-74
2021/01/04 01:38:52;;;;;;;12.30;11.10;;;;;;;0.95;100.00;100800.31;10229533;28;20047;-75
2021/01/04 01:44:05;;;;;;;10.82;9.73;;;;;;;1.00;100.00;100808.97;10244966;29;20476;-75
2021/01/04 01:49:17;;;;;;;10.45;9.45;;;;;;;0.99;100.00;100807.25;10250662;29;20040;-75
2021/01/04 01:54:44;;;;;;;13.70;11.05;;;;;;;1.00;100.00;100808.09;10225595;29;20067;-74
2021/01/04 02:00:13;;;;;;;13.75;12.20;;;;;;;0.90;100.00;100801.22;10256080;29;20039;-75
2021/01/04 02:05:30;;;;;;;9.77;8.55;;;;;;;0.94;100.00;100798.59;10235483;29;20039;-75
2021/01/04 02:10:38;;;;;;;9.40;8.50;;;;;;;0.86;100.00;100789.97;10217080;29;20050;-74
2021/01/04 02:15:57;;;;;;;10.50;9.23;;;;;;;0.93;100.00;100796.84;10255237;29;20058;-74
2021/01/04 02:21:36;;;;;;;12.77;11.48;;;;;;;0.87;100.00;100791.69;10254641;29;20215;-74
2021/01/04 02:26:47;;;;;;;19.48;16.25;;;;;;;0.93;100.00;100802.03;10231645;29;20058;-74
2021/01/04 02:31:54;;;;;;;19.08;15.52;;;;;;;0.95;100.00;100802.03;10292907;28;20114;-74
2021/01/04 02:36:58;;;;;;;12.68;11.38;;;;;;;0.95;100.00;100802.03;10269624;28;20126;-75
2021/01/04 02:42:04;;;;;;;9.90;8.90;;;;;;;0.89;100.00;100794.28;10253462;28;20051;-75
2021/01/04 02:47:18;;;;;;;12.18;10.48;;;;;;;0.92;100.00;100805.50;10252552;29;20432;-75
2021/01/04 02:53:02;;;;;;;10.00;8.70;;;;;;;0.91;100.00;100808.13;10216294;29;20055;-74
2021/01/04 02:58:03;;;;;;;10.85;9.73;;;;;;;0.92;100.00;100808.09;10198943;29;20060;-74
2021/01/04 03:03:05;;;;;;;11.77;10.20;;;;;;;0.97;100.00;100808.09;10214538;29;20040;-74
2021/01/04 03:08:06;;;;;;;11.23;10.02;;;;;;;0.92;100.00;100805.50;10241399;28;20043;-74
2021/01/04 03:13:30;;;;;;;9.57;8.57;;;;;;;0.92;100.00;100800.31;10253658;29;20526;-74
2021/01/04 03:18:46;;;;;;;10.02;8.88;;;;;;;1.02;100.00;100802.03;10253671;29;20047;-74
2021/01/04 03:23:49;;;;;;;9.50;8.50;;;;;;;0.95;100.00;100789.94;10252547;29;20044;-74
2021/01/04 03:28:50;;;;;;;10.35;9.05;;;;;;;0.96;100.00;100796.88;10251177;28;20050;-74
2021/01/04 03:33:51;;;;;;;9.85;8.57;;;;;;;1.01;100.00;100799.44;10268448;28;20058;-74
2021/01/04 03:38:52;;;;;;;10.30;9.05;;;;;;;1.01;100.00;100804.63;10252192;28;20047;-74
2021/01/04 03:43:53;;;;;;;10.65;9.40;;;;;;;1.02;100.00;100791.66;10252755;29;20050;-75
2021/01/04 03:48:56;;;;;;;11.27;9.98;;;;;;;0.98;100.00;100791.69;10252317;29;20102;-75
2021/01/04 03:53:57;;;;;;;10.45;9.35;;;;;;;0.99;100.00;100799.47;10255125;28;20047;-75
2021/01/04 03:58:58;;;;;;;9.25;8.35;;;;;;;0.94;100.00;100787.34;10259999;29;20499;-75
2021/01/04 04:04:00;;;;;;;9.30;7.88;;;;;;;1.00;100.00;100795.13;10259500;29;20071;-75
2021/01/04 04:09:02;;;;;;;9.70;8.73;;;;;;;0.98;100.00;100792.53;10241015;29;20467;-75
2021/01/04 04:14:04;;;;;;;9.13;7.90;;;;;;;0.91;100.00;100787.38;10259393;28;20392;-74
2021/01/04 04:19:06;;;;;;;9.30;7.93;;;;;;;0.95;100.00;100792.53;10259446;28;20078;-74
2021/01/04 04:24:08;;;;;;;9.50;8.52;;;;;;;0.97;100.00;100777.84;10242245;29;20047;-74
2021/01/04 04:29:09;;;;;;;10.52;9.18;;;;;;;0.94;100.00;100789.94;10275878;28;20406;-74
2021/01/04 04:34:11;;;;;;;11.75;9.90;;;;;;;0.93;100.00;100788.22;10294513;28;20059;-75
2021/01/04 04:39:14;;;;;;;10.80;9.07;;;;;;;0.94;100.00;100800.31;10247699;28;20039;-74
2021/01/04 04:44:53;;;;;;;12.60;11.30;;;;;;;0.97;100.00;100803.78;10258044;29;20131;-74
2021/01/04 04:49:59;;;;;;;11.25;10.15;;;;;;;0.92;100.00;100799.47;10257839;29;20094;-75
2021/01/04 04:55:04;;;;;;;14.75;13.25;;;;;;;0.96;100.00;100802.06;10240740;29;20054;-75
2021/01/04 05:00:32;;;;;;;12.33;11.03;;;;;;;0.93;100.00;100801.19;10257386;29;20048;-74
2021/01/04 05:06:19;;;;;;;11.00;9.68;;;;;;;0.93;100.00;100799.44;10255000;28;20071;-75
2021/01/04 05:11:29;;;;;;;11.10;9.68;;;;;;;0.94;100.00;100798.59;10257473;29;20047;-74
2021/01/04 05:16:57;;;;;;;10.50;8.57;;;;;;;0.95;100.00;100802.91;10256897;29;20047;-75
2021/01/04 05:22:36;;;;;;;10.27;9.02;;;;;;;0.98;100.00;100809.84;10257026;29;20138;-75
2021/01/04 05:27:54;;;;;;;15.50;12.32;;;;;;;1.00;100.00;100813.28;10262293;28;20042;-74
2021/01/04 05:33:17;;;;;;;13.63;10.45;;;;;;;0.99;100.00;100811.56;10295675;28;20051;-75
2021/01/04 05:38:45;;;;;;;10.18;7.90;;;;;;;1.01;100.00;100804.63;10253551;28;20058;-75
2021/01/04 05:44:18;;;;;;;9.88;8.43;;;;;;;0.97;100.00;100808.09;10254457;29;20373;-74
2021/01/04 05:49:38;;;;;;;8.90;7.70;;;;;;;0.98;100.00;100807.25;10256303;29;20046;-74
2021/01/04 05:54:40;;;;;;;10.05;8.73;;;;;;;0.97;100.00;100815.88;10250340;29;20058;-74
2021/01/04 05:59:54;;;;;;;12.82;8.13;;;;;;;1.18;100.00;100831.38;10237648;29;20051;-75
2021/01/04 06:05:12;;;;;;;9.20;7.60;;;;;;;1.17;100.00;100821.91;10251173;29;20045;-74
2021/01/04 06:10:39;;;;;;;11.10;8.43;;;;;;;1.05;100.00;100814.13;10249932;29;20043;-74
2021/01/04 06:15:43;;;;;;;10.32;8.30;;;;;;;1.00;100.00;100823.66;10249632;28;20059;-73
2021/01/04 06:20:44;;;;;;;11.05;9.00;;;;;;;0.98;100.00;100831.44;10251834;29;20047;-72
2021/01/04 06:25:53;;;;;;;9.57;8.57;;;;;;;1.02;100.00;100838.34;10252177;29;20050;-76
2021/01/04 06:31:05;;;;;;;9.23;7.90;;;;;;;0.98;100.00;100836.63;10256635;28;20047;-74
2021/01/04 06:36:14;;;;;;;10.23;8.02;;;;;;;0.98;100.00;100839.22;10252913;29;20424;-75
2021/01/04 06:41:29;;;;;;;8.90;7.88;;;;;;;0.98;100.00;100847.00;10253481;28;20051;-75
2021/01/04 06:46:44;;;;;;;11.63;9.35;;;;;;;0.98;100.00;100852.19;10254435;29;20476;-74
2021/01/04 06:52:16;;;;;;;11.10;9.03;;;;;;;1.02;100.00;100860.81;10254016;29;20460;-74
2021/01/04 06:57:42;;;;;;;11.30;9.80;;;;;;;0.98;100.00;100859.97;10252702;29;20058;-73
2021/01/04 07:03:14;;;;;;;12.55;10.63;;;;;;;1.00;100.00;100870.38;10253172;29;20051;-75
2021/01/04 07:08:44;;;;;;;12.55;9.90;;;;;;;1.00;100.00;100870.38;10251618;29;20039;-71
2021/01/04 07:14:16;;;;;;;13.63;10.38;;;;;;;1.03;100.00;100878.13;10253498;29;20047;-72
2021/01/04 07:19:51;;;;;;;12.10;10.10;;;;;;;1.00;100.00;100873.81;10253607;29;20047;-73
2021/01/04 07:25:12;;;;;;;13.13;11.13;;;;;;;1.04;100.00;100885.91;10252422;29;20079;-72
2021/01/04 07:30:29;;;;;;;12.27;10.98;;;;;;;1.04;100.00;100882.44;10262678;28;20122;-72
2021/01/04 07:35:40;;;;;;;13.07;10.73;;;;;;;1.09;100.00;100893.66;10258790;29;20047;-73
2021/01/04 07:40:52;;;;;;;12.27;10.77;;;;;;;1.13;100.00;100904.06;10257075;28;20043;-73
2021/01/04 07:46:16;;;;;;;13.18;11.75;;;;;;;1.12;100.00;100904.06;10257792;29;20054;-73
2021/01/04 07:52:04;;;;;;;15.20;11.30;;;;;;;1.13;100.00;100905.78;10199803;29;20059;-73
2021/01/04 07:57:28;;;;;;;14.20;11.27;;;;;;;1.08;100.00;100902.34;10238547;29;20055;-72
2021/01/04 08:02:57;;;;;;;32.00;25.38;;;;;;;1.19;100.00;100916.16;10256629;28;20512;-73
2021/01/04 08:08:22;;;;;;;130.27;93.97;;;;;;;1.20;100.00;100917.00;10255749;28;20053;-74
2021/01/04 08:13:59;;;;;;;59.65;44.17;;;;;;;1.20;100.00;100914.41;10266975;29;20043;-73
2021/01/04 08:19:05;;;;;;;53.05;41.92;;;;;;;1.20;100.00;100923.06;10258129;29;20051;-74
2021/01/04 08:24:16;;;;;;;64.40;52.28;;;;;;;1.22;100.00;100928.28;10256722;29;20043;-73
2021/01/04 08:30:04;;;;;;;41.58;37.05;;;;;;;1.26;100.00;100929.97;10256312;28;20043;-72
2021/01/04 08:35:28;;;;;;;23.52;21.17;;;;;;;1.28;100.00;100926.53;10256102;28;20058;-73
2021/01/04 08:40:35;;;;;;;16.50;14.55;;;;;;;1.23;100.00;100922.22;10246678;28;20055;-72
2021/01/04 08:45:45;;;;;;;12.98;11.68;;;;;;;1.27;100.00;100926.53;10257441;29;20058;-72
2021/01/04 08:51:05;;;;;;;13.35;11.63;;;;;;;1.28;100.00;100934.31;10256635;29;20065;-73
2021/01/04 08:56:55;;;;;;;16.33;14.45;;;;;;;1.35;100.00;100942.94;10255309;29;20050;-73
2021/01/04 09:02:18;;;;;;;17.08;13.90;;;;;;;1.34;100.00;100942.06;10185426;29;20083;-73
2021/01/04 09:07:21;;;;;;;13.88;11.65;;;;;;;1.38;100.00;100943.81;10249760;29;20047;-73
2021/01/04 09:12:36;;;;;;;16.52;14.68;;;;;;;1.39;100.00;100947.28;10237909;29;20047;-73
2021/01/04 09:17:44;;;;;;;14.80;12.03;;;;;;;1.43;100.00;100944.66;10254563;29;20058;-73
2021/01/04 09:23:01;;;;;;;16.08;13.68;;;;;;;1.45;100.00;100955.03;10254424;29;20043;-74
2021/01/04 09:28:02;;;;;;;14.45;12.18;;;;;;;1.43;100.00;100959.38;10263251;28;20038;-72
2021/01/04 09:33:08;;;;;;;19.73;14.85;;;;;;;1.48;100.00;100960.25;10255657;29;20492;-74
2021/01/04 09:38:19;;;;;;;14.32;12.85;;;;;;;1.50;100.00;100954.19;10234927;28;20043;-73
2021/01/04 09:43:24;;;;;;;15.10;13.43;;;;;;;1.51;100.00;100947.25;10230190;28;20055;-73
2021/01/04 09:48:41;;;;;;;29.17;26.15;;;;;;;1.56;100.00;100955.91;10240158;29;20051;-72
2021/01/04 09:53:56;;;;;;;20.42;18.20;;;;;;;1.61;100.00;100963.66;10253144;28;20047;-72
2021/01/04 09:59:23;;;;;;;64.77;51.17;;;;;;;1.57;100.00;100944.66;10237114;29;20142;-73
2021/01/04 10:04:30;;;;;;;42.10;38.70;;;;;;;1.65;100.00;100958.47;10253131;28;20039;-73
2021/01/04 10:09:34;;;;;;;55.95;48.05;;;;;;;1.64;100.00;100948.97;10246344;29;20460;-73
2021/01/04 10:14:36;;;;;;;76.43;69.70;;;;;;;1.67;100.00;100954.16;10252945;29;20393;-73
2021/01/04 10:20:05;;;;;;;17.27;15.20;;;;;;;1.64;100.00;100948.97;10253343;29;20050;-73
2021/01/04 10:25:20;;;;;;;35.90;28.63;;;;;;;1.64;100.00;100950.69;10247492;29;20387;-73
2021/01/04 10:30:25;;;;;;;109.13;98.68;;;;;;;1.65;100.00;100944.63;10280232;28;20442;-73
2021/01/04 10:35:26;;;;;;;29.35;26.75;;;;;;;1.59;100.00;100940.28;10285272;28;20054;-73
2021/01/04 10:40:46;;;;;;;20.13;16.90;;;;;;;1.61;100.00;100941.16;10252846;29;20039;-73
2021/01/04 10:45:47;;;;;;;40.35;34.63;;;;;;;1.61;100.00;100940.31;10236511;29;20091;-73
2021/01/04 10:50:54;;;;;;;171.75;153.23;;;;;;;1.65;100.00;100944.63;10254764;29;20059;-73
2021/01/04 10:56:14;;;;;;;40.30;36.88;;;;;;;1.61;100.00;100938.56;10253417;29;20055;-73
2021/01/04 11:01:20;;;;;;;20.30;17.98;;;;;;;1.50;100.00;100920.44;10253548;28;20134;-73
2021/01/04 11:06:28;;;;;;;23.38;18.77;;;;;;;1.49;100.00;100926.50;10214254;29;20043;-73
2021/01/04 11:11:36;;;;;;;15.02;13.38;;;;;;;1.48;100.00;100926.50;10253705;28;20032;-73
2021/01/04 11:16:47;;;;;;;15.15;12.18;;;;;;;1.50;100.00;100917.84;10228032;29;20484;-73
2021/01/04 11:21:48;;;;;;;14.85;12.65;;;;;;;1.47;100.00;100901.41;10234367;29;20456;-73
2021/01/04 11:26:49;;;;;;;15.68;12.68;;;;;;;1.56;100.00;100901.38;10243672;29;20155;-74
2021/01/04 11:31:50;;;;;;;13.63;11.40;;;;;;;1.65;100.00;100913.47;10288200;28;20063;-73
2021/01/04 11:36:51;;;;;;;14.57;11.45;;;;;;;1.57;100.00;100903.13;10240993;28;20070;-72
2021/01/04 11:41:53;;;;;;;12.68;10.50;;;;;;;1.70;100.00;100909.13;10242789;29;20047;-72
2021/01/04 11:46:54;;;;;;;15.95;11.13;;;;;;;1.84;100.00;100915.16;10223481;29;20040;-73
2021/01/04 11:51:55;;;;;;;15.15;11.00;;;;;;;1.81;100.00;100900.44;10242987;29;20431;-73
2021/01/04 11:56:57;;;;;;;16.33;13.52;;;;;;;1.78;100.00;100900.44;10243474;29;20531;-73
2021/01/04 12:01:58;;;;;;;14.75;11.95;;;;;;;1.73;100.00;100884.00;10259339;29;20131;-73
2021/01/04 12:06:59;;;;;;;12.95;9.40;;;;;;;1.70;100.00;100883.16;10241153;28;20487;-74
2021/01/04 12:12:01;;;;;;;11.60;9.57;;;;;;;1.66;100.00;100878.84;10259191;29;20043;-73
2021/01/04 12:17:05;;;;;;;15.00;10.73;;;;;;;1.74;100.00;100882.28;10257925;28;20047;-73
2021/01/04 12:22:11;;;;;;;10.77;9.63;;;;;;;1.63;100.00;100858.94;10241454;29;20051;-73
2021/01/04 12:27:13;;;;;;;11.15;9.98;;;;;;;1.53;100.00;100862.44;10257998;28;20499;-73
2021/01/04 12:32:17;;;;;;;14.07;11.40;;;;;;;1.52;100.00;100861.56;10257759;28;20055;-73
2021/01/04 12:37:18;;;;;;;10.63;9.50;;;;;;;1.51;100.00;100861.56;10238436;28;20490;-73
2021/01/04 12:42:19;;;;;;;10.77;9.68;;;;;;;1.50;100.00;100852.09;10257965;29;20047;-73
2021/01/04 12:47:20;;;;;;;12.93;11.52;;;;;;;1.57;100.00;100853.78;10257665;29;20054;-72
2021/01/04 12:52:21;;;;;;;12.32;11.13;;;;;;;1.59;100.00;100831.25;10257806;29;20114;-72
2021/01/04 12:57:24;;;;;;;19.02;17.25;;;;;;;1.67;100.00;100836.44;10257089;29;20043;-74
2021/01/04 13:02:25;;;;;;;24.58;22.23;;;;;;;1.70;100.00;100833.81;10255579;29;20043;-73
2021/01/04 13:07:28;;;;;;;32.47;27.42;;;;;;;1.71;100.00;100831.22;10238985;28;20043;-72
2021/01/04 13:12:29;;;;;;;17.85;16.35;;;;;;;1.74;100.00;100833.81;10257018;29;20051;-72
2021/01/04 13:17:30;;;;;;;18.75;17.15;;;;;;;1.77;100.00;100832.91;10257645;29;20054;-73
2021/01/04 13:22:31;;;;;;;14.60;13.10;;;;;;;1.73;100.00;100823.41;10260025;29;20377;-72
2021/01/04 13:27:32;;;;;;;13.77;12.38;;;;;;;1.81;100.00;100829.44;10241860;28;20383;-73
2021/01/04 13:32:34;;;;;;;10.55;9.45;;;;;;;1.68;100.00;100802.66;10230262;29;20059;-72
2021/01/04 13:37:35;;;;;;;17.30;15.70;;;;;;;1.75;100.00;100817.34;10232627;28;20043;-72
2021/01/04 13:42:37;;;;;;;14.88;13.48;;;;;;;1.87;100.00;100832.00;10250548;28;20055;-73
2021/01/04 13:47:38;;;;;;;21.00;19.00;;;;;;;1.85;100.00;100824.19;10247398;28;20389;-75
2021/01/04 13:52:40;;;;;;;9.77;8.77;;;;;;;1.87;100.00;100822.47;10255146;29;20523;-75
2021/01/04 13:57:41;;;;;;;13.50;12.07;;;;;;;1.94;100.00;100827.63;10255464;29;20360;-73
2021/01/04 14:02:42;;;;;;;14.45;13.25;;;;;;;1.95;100.00;100818.97;10254566;29;20039;-73
2021/01/04 14:07:43;;;;;;;15.38;13.85;;;;;;;1.97;100.00;100823.28;10253511;28;20043;-73
2021/01/04 14:12:44;;;;;;;14.52;13.13;;;;;;;2.00;100.00;100825.88;10237636;29;20054;-72
2021/01/04 14:17:45;;;;;;;26.58;23.85;;;;;;;2.01;100.00;100824.97;10254520;29;20468;-73
2021/01/04 14:22:46;;;;;;;29.95;26.75;;;;;;;2.02;100.00;100813.72;10253625;29;20098;-73
2021/01/04 14:27:47;;;;;;;34.95;31.23;;;;;;;2.00;100.00;100810.28;10251812;28;20039;-74
2021/01/04 14:32:49;;;;;;;32.22;27.60;;;;;;;1.97;100.00;100801.63;10252969;29;20059;-74
2021/01/04 14:37:50;;;;;;;35.42;31.60;;;;;;;2.03;100.00;100805.06;10233913;28;20051;-74
2021/01/04 14:42:58;;;;;;;16.45;14.10;;;;;;;2.00;100.00;100796.44;10253304;29;20357;-74
2021/01/04 14:47:59;;;;;;;15.93;14.18;;;;;;;1.98;100.00;100801.63;10252741;28;20050;-75
2021/01/04 14:53:00;;;;;;;19.70;17.92;;;;;;;2.04;100.00;100813.72;10231716;29;20063;-74
2021/01/04 14:58:02;;;;;;;14.73;13.30;;;;;;;1.92;100.00;100793.00;10213950;29;20054;-74
2021/01/04 15:03:03;;;;;;;16.35;14.75;;;;;;;1.98;100.00;100801.63;10252171;29;20054;-74
2021/01/04 15:08:05;;;;;;;17.00;15.20;;;;;;;1.94;100.00;100783.44;10253359;29;20476;-74
2021/01/04 15:13:06;;;;;;;20.75;18.60;;;;;;;2.01;100.00;100795.56;10252717;29;20055;-74
2021/01/04 15:18:07;;;;;;;20.95;18.83;;;;;;;2.06;100.00;100792.03;10252106;29;20050;-75
2021/01/04 15:23:08;;;;;;;14.10;12.20;;;;;;;1.98;100.00;100777.38;10265098;28;20098;-74
2021/01/04 15:28:09;;;;;;;16.02;12.32;;;;;;;2.02;100.00;100792.06;10234511;29;20055;-74
2021/01/04 15:33:10;;;;;;;15.82;13.60;;;;;;;2.00;100.00;100796.44;10250659;28;20063;-73
2021/01/04 15:38:11;;;;;;;13.10;11.82;;;;;;;1.98;100.00;100792.97;10247852;28;20043;-74
2021/01/04 15:43:12;;;;;;;17.48;15.68;;;;;;;1.93;100.00;100792.97;10251200;29;20047;-74
2021/01/04 15:48:14;;;;;;;12.82;11.38;;;;;;;1.94;100.00;100788.66;10251094;28;20063;-74
2021/01/04 15:53:15;;;;;;;14.52;12.75;;;;;;;1.88;100.00;100787.81;10258139;29;20071;-74
2021/01/04 15:58:17;;;;;;;14.75;13.05;;;;;;;1.88;100.00;100793.03;10257446;28;20051;-74
2021/01/04 16:03:18;;;;;;;11.55;8.82;;;;;;;1.96;100.00;100798.16;10258067;29;20502;-74
2021/01/04 16:08:19;;;;;;;17.90;16.23;;;;;;;1.91;100.00;100786.97;10239246;29;20058;-74
2021/01/04 16:13:20;;;;;;;13.18;11.38;;;;;;;1.85;100.00;100767.06;10257558;29;20051;-74
2021/01/04 16:18:21;;;;;;;17.60;15.40;;;;;;;1.91;100.00;100786.97;10257909;29;20403;-74
2021/01/04 16:23:22;;;;;;;17.42;15.52;;;;;;;1.81;100.00;100774.88;10258271;29;20051;-74
2021/01/04 16:28:23;;;;;;;16.58;13.73;;;;;;;1.80;100.00;100781.81;10252699;28;20058;-74
2021/01/04 16:33:26;;;;;;;15.80;13.30;;;;;;;1.82;100.00;100787.00;10297590;28;20070;-76
2021/01/04 16:38:27;;;;;;;16.10;13.60;;;;;;;1.83;100.00;100786.13;10271203;28;20081;-75
2021/01/04 16:43:28;;;;;;;18.17;16.20;;;;;;;1.83;100.00;100797.41;10258237;29;20393;-75
2021/01/04 16:48:29;;;;;;;18.60;16.50;;;;;;;1.95;100.00;100805.97;10258309;29;20043;-76
2021/01/04 16:53:30;;;;;;;18.05;16.23;;;;;;;1.92;100.00;100794.72;10240846;29;20420;-76
2021/01/04 16:58:32;;;;;;;16.52;12.90;;;;;;;1.87;100.00;100790.44;10259048;29;20047;-76
2021/01/04 17:03:33;;;;;;;15.27;12.55;;;;;;;1.82;100.00;100792.19;10240024;29;20460;-76
2021/01/04 17:08:34;;;;;;;15.10;12.82;;;;;;;1.77;100.00;100783.56;10234944;29;20043;-75
2021/01/04 17:13:35;;;;;;;14.60;12.02;;;;;;;1.73;100.00;100779.25;10254339;29;20039;-75
2021/01/04 17:18:36;;;;;;;15.05;12.75;;;;;;;1.86;100.00;100797.34;10216726;28;20058;-75
2021/01/04 17:23:37;;;;;;;15.60;13.48;;;;;;;1.83;100.00;100797.41;10253595;29;20043;-75
2021/01/04 17:28:38;;;;;;;18.58;15.70;;;;;;;1.79;100.00;100792.22;10248747;28;20051;-75
2021/01/04 17:33:40;;;;;;;19.73;15.65;;;;;;;1.78;100.00;100796.53;10251992;28;20063;-76
2021/01/04 17:38:42;;;;;;;19.20;15.27;;;;;;;1.79;100.00;100802.59;10254351;29;20058;-75
2021/01/04 17:43:44;;;;;;;14.85;12.25;;;;;;;1.79;100.00;100803.47;10252871;28;20055;-76
2021/01/04 17:48:45;;;;;;;17.23;13.32;;;;;;;1.80;100.00;100805.19;10236160;29;20051;-76
2021/01/04 17:53:47;;;;;;;14.48;12.50;;;;;;;1.81;100.00;100798.25;10252935;29;20043;-75
2021/01/04 17:58:50;;;;;;;17.30;13.80;;;;;;;1.75;100.00;100790.50;10252879;29;20054;-76
2021/01/04 18:03:52;;;;;;;13.32;11.23;;;;;;;1.77;100.00;100804.34;10252473;29;20051;-76
2021/01/04 18:08:54;;;;;;;14.52;12.50;;;;;;;1.79;100.00;100806.06;10214489;29;20051;-75
2021/01/04 18:13:55;;;;;;;13.80;11.68;;;;;;;1.78;100.00;100806.94;10251737;28;20061;-75
2021/01/04 18:18:57;;;;;;;16.15;13.27;;;;;;;1.79;100.00;100806.06;10237672;29;20067;-76
2021/01/04 18:24:04;;;;;;;13.30;11.23;;;;;;;1.74;100.00;100800.03;10254343;29;20047;-75
2021/01/04 18:29:06;;;;;;;17.77;14.45;;;;;;;1.75;100.00;100809.56;10253302;28;20050;-75
2021/01/04 18:34:08;;;;;;;14.23;12.02;;;;;;;1.77;100.00;100813.00;10253107;28;20377;-75
2021/01/04 18:39:12;;;;;;;16.23;12.10;;;;;;;1.71;100.00;100796.59;10251421;29;20068;-76
2021/01/04 18:44:14;;;;;;;13.37;11.90;;;;;;;1.78;100.00;100800.88;10249233;29;20381;-76
2021/01/04 18:49:16;;;;;;;13.38;11.85;;;;;;;1.74;100.00;100810.44;10251138;29;20519;-75
2021/01/04 18:54:21;;;;;;;16.33;13.07;;;;;;;1.72;100.00;100812.16;10250726;29;20400;-75
2021/01/04 18:59:28;;;;;;;14.75;12.52;;;;;;;1.69;100.00;100812.16;10250966;29;20389;-76
2021/01/04 19:04:31;;;;;;;15.52;12.07;;;;;;;1.68;100.00;100813.03;10229257;28;20554;-76
2021/01/04 19:09:35;;;;;;;15.35;12.25;;;;;;;1.65;100.00;100815.66;10251753;29;20043;-76
2021/01/04 19:14:36;;;;;;;15.35;12.38;;;;;;;1.69;100.00;100814.75;10252467;29;20043;-75
2021/01/04 19:19:38;;;;;;;13.40;11.77;;;;;;;1.68;100.00;100817.34;10252633;29;20448;-75
2021/01/04 19:24:39;;;;;;;16.00;12.05;;;;;;;1.63;100.00;100807.00;10237711;28;20047;-75
2021/01/04 19:29:40;;;;;;;22.05;15.65;;;;;;;1.63;100.00;100798.34;10282848;28;20046;-75
2021/01/04 19:34:42;;;;;;;17.38;13.07;;;;;;;1.71;100.00;100810.44;10260752;28;20074;-75
2021/01/04 19:39:43;;;;;;;21.10;15.25;;;;;;;1.65;100.00;100807.00;10258052;29;20051;-75
2021/01/04 19:44:45;;;;;;;17.20;13.30;;;;;;;1.63;100.00;100819.13;10258354;29;20043;-75
2021/01/04 19:49:47;;;;;;;16.08;12.60;;;;;;;1.66;100.00;100821.72;10257694;29;20047;-75
2021/01/04 19:54:48;;;;;;;18.00;13.57;;;;;;;1.61;100.00;100813.94;10257657;29;20044;-76
2021/01/04 19:59:50;;;;;;;18.73;12.23;;;;;;;1.62;100.00;100809.59;10231759;29;20052;-74
2021/01/04 20:04:51;;;;;;;14.93;12.95;;;;;;;1.58;100.00;100807.91;10205590;29;20043;-75
2021/01/04 20:09:53;;;;;;;25.70;23.33;;;;;;;1.61;100.00;100818.25;10258197;28;20039;-74
2021/01/04 20:14:55;;;;;;;52.25;47.22;;;;;;;1.56;100.00;100818.28;10259356;29;20476;-75
2021/01/04 20:19:56;;;;;;;30.23;27.42;;;;;;;1.57;100.00;100819.16;10240978;29;20047;-75
2021/01/04 20:24:57;;;;;;;45.13;40.92;;;;;;;1.63;100.00;100826.91;10242028;29;20048;-75
2021/01/04 20:29:58;;;;;;;38.97;35.28;;;;;;;1.62;100.00;100823.44;10282832;28;20054;-74
2021/01/04 20:34:59;;;;;;;32.42;29.42;;;;;;;1.55;100.00;100816.56;10257614;28;20063;-75
2021/01/04 20:40:01;;;;;;;25.48;23.02;;;;;;;1.52;100.00;100806.19;10256128;29;20050;-75
2021/01/04 20:45:04;;;;;;;34.13;30.85;;;;;;;1.53;100.00;100806.19;10261893;29;20049;-74
2021/01/04 20:50:10;;;;;;;62.78;56.22;;;;;;;1.52;100.00;100817.44;10256583;29;20149;-75
2021/01/04 20:55:12;;;;;;;57.47;51.53;;;;;;;1.53;100.00;100815.69;10255444;29;20039;-75
2021/01/04 21:00:18;;;;;;;119.60;105.63;;;;;;;1.52;100.00;100820.03;10252274;29;20062;-75
2021/01/04 21:05:19;;;;;;;76.55;65.72;;;;;;;1.48;100.00;100813.13;10247723;28;20053;-75
2021/01/04 21:10:20;;;;;;;144.85;114.85;;;;;;;1.47;100.00;100811.41;10221400;29;20070;-75
2021/01/04 21:15:22;;;;;;;145.77;113.40;;;;;;;1.44;100.00;100814.00;10217061;28;20415;-75
2021/01/04 21:20:23;;;;;;;91.15;71.95;;;;;;;1.39;100.00;100802.78;10216036;29;20055;-75
2021/01/04 21:25:24;;;;;;;107.72;92.18;;;;;;;1.43;100.00;100811.41;10244966;29;20039;-75
2021/01/04 21:30:26;;;;;;;47.35;41.75;;;;;;;1.41;100.00;100814.03;10253049;28;20476;-75
2021/01/04 21:35:27;;;;;;;54.13;48.38;;;;;;;1.40;100.00;100816.63;10235266;29;20051;-75
2021/01/04 21:40:29;;;;;;;37.17;33.33;;;;;;;1.44;100.00;100818.34;10253299;29;20047;-75
2021/01/04 21:45:30;;;;;;;35.53;31.77;;;;;;;1.45;100.00;100820.06;10253172;28;20043;-75
2021/01/04 21:50:31;;;;;;;35.92;32.25;;;;;;;1.45;100.00;100825.25;10235751;29;20050;-75
2021/01/04 21:55:33;;;;;;;33.38;27.25;;;;;;;1.35;100.00;100811.44;10251787;29;20047;-74
2021/01/04 22:00:34;;;;;;;20.92;18.25;;;;;;;1.37;100.00;100821.81;10234889;29;20050;-75
2021/01/04 22:05:35;;;;;;;19.95;17.83;;;;;;;1.42;100.00;100830.47;10250869;28;20050;-75
2021/01/04 22:10:36;;;;;;;18.10;14.98;;;;;;;1.40;100.00;100827.00;10252545;29;20376;-75
2021/01/04 22:15:37;;;;;;;18.20;14.98;;;;;;;1.41;100.00;100823.56;10252545;29;20039;-75
2021/01/04 22:20:38;;;;;;;18.50;14.65;;;;;;;1.41;100.00;100815.78;10250978;29;20035;-75
2021/01/04 22:25:39;;;;;;;19.15;15.07;;;;;;;1.36;100.00;100815.75;10235619;29;20043;-75
2021/01/04 22:30:40;;;;;;;18.45;14.20;;;;;;;1.40;100.00;100814.91;10255070;28;20172;-75
2021/01/04 22:35:41;;;;;;;21.52;17.48;;;;;;;1.40;100.00;100821.81;10251838;29;20059;-75
2021/01/04 22:40:43;;;;;;;19.80;15.50;;;;;;;1.43;100.00;100821.78;10252765;28;20050;-75
2021/01/04 22:45:44;;;;;;;19.00;14.20;;;;;;;1.40;100.00;100821.81;10253688;29;20044;-74
2021/01/04 22:50:46;;;;;;;18.05;14.32;;;;;;;1.34;100.00;100814.91;10209190;29;20511;-75
2021/01/04 22:55:47;;;;;;;18.08;14.25;;;;;;;1.36;100.00;100820.09;10234867;29;20122;-75
2021/01/04 23:00:48;;;;;;;18.73;14.93;;;;;;;1.36;100.00;100805.38;10246481;28;20051;-75
2021/01/04 23:05:50;;;;;;;20.92;15.35;;;;;;;1.34;100.00;100809.72;10265817;28;20055;-75
2021/01/04 23:10:51;;;;;;;20.05;15.23;;;;;;;1.32;100.00;100808.88;10266517;28;20043;-74